sensor_id;sensor_type;location;lat;lon;timestamp;P1;durP1;ratioP1;P2;durP2;ratioP2
74967;SDS011;63523;51.880;12.630;2023-02-21T00:02:37;8.52;;;2.50;;
74967;SDS011;63523;51.880;12.630;2023-02-21T00:05:21;10.90;;;3.03;;
74967;SDS011;63523;51.880;12.630;2023-02-21T00:08:05;13.68;;;4.13;;
74967;SDS011;63523;51.880;12.630;2023-02-21T00:10:49;20.60;;;6.32;;
74967;SDS011;63523;51.880;12.630;2023-02-21T00:13:37;29.70;;;8.70;;
74967;SDS011;63523;51.880;12.630;2023-02-21T00:16:21;34.28;;;9.27;;
74967;SDS011;63523;51.880;12.630;2023-02-21T00:19:06;27.57;;;8.27;;
74967;SDS011;63523;51.880;12.630;2023-02-21T00:21:50;31.23;;;9.45;;
74967;SDS011;63523;51.880;12.630;2023-02-21T00:24:34;30.48;;;9.32;;
74967;SDS011;63523;51.880;12.630;2023-02-21T00:27:18;31.30;;;9.45;;
74967;SDS011;63523;51.880;12.630;2023-02-21T00:30:04;27.85;;;7.68;;
74967;SDS011;63523;51.880;12.630;2023-02-21T00:32:48;29.43;;;8.53;;
74967;SDS011;63523;51.880;12.630;2023-02-21T00:35:32;22.67;;;7.35;;
74967;SDS011;63523;51.880;12.630;2023-02-21T00:38:16;27.10;;;8.13;;
74967;SDS011;63523;51.880;12.630;2023-02-21T00:41:00;37.70;;;10.57;;
74967;SDS011;63523;51.880;12.630;2023-02-21T00:43:44;28.02;;;8.75;;
74967;SDS011;63523;51.880;12.630;2023-02-21T00:46:28;29.27;;;8.97;;
74967;SDS011;63523;51.880;12.630;2023-02-21T00:49:12;25.77;;;7.88;;
74967;SDS011;63523;51.880;12.630;2023-02-21T00:51:56;23.83;;;7.45;;
74967;SDS011;63523;51.880;12.630;2023-02-21T00:54:41;24.50;;;7.13;;
74967;SDS011;63523;51.880;12.630;2023-02-21T00:57:25;25.85;;;7.93;;
74967;SDS011;63523;51.880;12.630;2023-02-21T01:00:13;23.17;;;6.97;;
74967;SDS011;63523;51.880;12.630;2023-02-21T01:03:04;27.48;;;8.52;;
74967;SDS011;63523;51.880;12.630;2023-02-21T01:05:50;20.10;;;6.03;;
74967;SDS011;63523;51.880;12.630;2023-02-21T01:08:34;21.10;;;6.65;;
74967;SDS011;63523;51.880;12.630;2023-02-21T01:11:20;24.63;;;7.82;;
74967;SDS011;63523;51.880;12.630;2023-02-21T01:14:04;30.33;;;8.83;;
74967;SDS011;63523;51.880;12.630;2023-02-21T01:16:49;35.50;;;10.93;;
74967;SDS011;63523;51.880;12.630;2023-02-21T01:19:33;26.08;;;8.07;;
74967;SDS011;63523;51.880;12.630;2023-02-21T01:22:17;22.25;;;7.13;;
74967;SDS011;63523;51.880;12.630;2023-02-21T01:25:01;27.33;;;8.52;;
74967;SDS011;63523;51.880;12.630;2023-02-21T01:27:45;15.80;;;5.60;;
74967;SDS011;63523;51.880;12.630;2023-02-21T01:30:29;22.35;;;6.88;;
74967;SDS011;63523;51.880;12.630;2023-02-21T01:33:13;28.85;;;9.50;;
74967;SDS011;63523;51.880;12.630;2023-02-21T01:35:57;22.50;;;7.28;;
74967;SDS011;63523;51.880;12.630;2023-02-21T01:38:40;33.67;;;10.70;;
74967;SDS011;63523;51.880;12.630;2023-02-21T01:41:24;33.40;;;10.00;;
74967;SDS011;63523;51.880;12.630;2023-02-21T01:47:26;35.58;;;9.63;;
74967;SDS011;63523;51.880;12.630;2023-02-21T01:53:04;20.92;;;7.32;;
74967;SDS011;63523;51.880;12.630;2023-02-21T01:55:52;21.17;;;6.97;;
74967;SDS011;63523;51.880;12.630;2023-02-21T01:58:38;18.00;;;7.28;;
74967;SDS011;63523;51.880;12.630;2023-02-21T02:01:28;20.20;;;6.80;;
74967;SDS011;63523;51.880;12.630;2023-02-21T02:04:26;24.00;;;8.05;;
74967;SDS011;63523;51.880;12.630;2023-02-21T02:07:10;23.58;;;7.78;;
74967;SDS011;63523;51.880;12.630;2023-02-21T02:09:57;20.80;;;7.37;;
74967;SDS011;63523;51.880;12.630;2023-02-21T02:12:49;25.73;;;8.15;;
74967;SDS011;63523;51.880;12.630;2023-02-21T02:15:30;25.27;;;8.10;;
74967;SDS011;63523;51.880;12.630;2023-02-21T02:18:19;30.35;;;9.32;;
74967;SDS011;63523;51.880;12.630;2023-02-21T02:21:33;17.75;;;6.32;;
74967;SDS011;63523;51.880;12.630;2023-02-21T02:37:56;31.03;;;10.57;;
74967;SDS011;63523;51.880;12.630;2023-02-21T02:43:48;23.02;;;7.80;;
74967;SDS011;63523;51.880;12.630;2023-02-21T02:46:22;28.48;;;9.20;;
74967;SDS011;63523;51.880;12.630;2023-02-21T02:48:56;21.48;;;7.85;;
74967;SDS011;63523;51.880;12.630;2023-02-21T02:51:22;22.13;;;7.73;;
74967;SDS011;63523;51.880;12.630;2023-02-21T02:53:49;26.60;;;9.43;;
74967;SDS011;63523;51.880;12.630;2023-02-21T02:56:15;26.03;;;8.70;;
74967;SDS011;63523;51.880;12.630;2023-02-21T02:58:53;17.10;;;6.80;;
74967;SDS011;63523;51.880;12.630;2023-02-21T03:09:39;21.70;;;7.40;;
74967;SDS011;63523;51.880;12.630;2023-02-21T03:15:04;17.73;;;6.13;;
74967;SDS011;63523;51.880;12.630;2023-02-21T03:17:36;15.57;;;5.78;;
74967;SDS011;63523;51.880;12.630;2023-02-21T03:20:06;16.92;;;6.63;;
74967;SDS011;63523;51.880;12.630;2023-02-21T03:22:34;26.43;;;9.20;;
74967;SDS011;63523;51.880;12.630;2023-02-21T03:25:01;24.17;;;8.55;;
74967;SDS011;63523;51.880;12.630;2023-02-21T03:27:28;37.78;;;12.02;;
74967;SDS011;63523;51.880;12.630;2023-02-21T03:29:56;29.95;;;10.40;;
74967;SDS011;63523;51.880;12.630;2023-02-21T03:32:26;19.00;;;6.93;;
74967;SDS011;63523;51.880;12.630;2023-02-21T03:35:02;29.57;;;8.87;;
74967;SDS011;63523;51.880;12.630;2023-02-21T03:37:30;40.65;;;13.15;;
74967;SDS011;63523;51.880;12.630;2023-02-21T03:40:12;30.45;;;10.40;;
74967;SDS011;63523;51.880;12.630;2023-02-21T03:42:40;22.67;;;7.90;;
74967;SDS011;63523;51.880;12.630;2023-02-21T03:45:05;23.27;;;7.93;;
74967;SDS011;63523;51.880;12.630;2023-02-21T03:47:31;16.38;;;6.22;;
74967;SDS011;63523;51.880;12.630;2023-02-21T03:49:56;17.93;;;6.73;;
74967;SDS011;63523;51.880;12.630;2023-02-21T03:52:22;16.60;;;6.23;;
74967;SDS011;63523;51.880;12.630;2023-02-21T03:54:47;13.53;;;5.60;;
74967;SDS011;63523;51.880;12.630;2023-02-21T03:57:13;16.58;;;6.63;;
74967;SDS011;63523;51.880;12.630;2023-02-21T03:59:38;14.60;;;5.90;;
74967;SDS011;63523;51.880;12.630;2023-02-21T04:02:04;14.93;;;6.13;;
74967;SDS011;63523;51.880;12.630;2023-02-21T04:04:30;12.93;;;5.28;;
74967;SDS011;63523;51.880;12.630;2023-02-21T04:06:55;12.67;;;5.77;;
74967;SDS011;63523;51.880;12.630;2023-02-21T04:09:21;16.37;;;7.17;;
74967;SDS011;63523;51.880;12.630;2023-02-21T04:11:47;15.93;;;6.00;;
74967;SDS011;63523;51.880;12.630;2023-02-21T04:14:13;12.27;;;5.43;;
74967;SDS011;63523;51.880;12.630;2023-02-21T04:16:38;13.97;;;5.87;;
74967;SDS011;63523;51.880;12.630;2023-02-21T04:19:04;14.18;;;5.88;;
74967;SDS011;63523;51.880;12.630;2023-02-21T04:21:29;15.27;;;6.03;;
74967;SDS011;63523;51.880;12.630;2023-02-21T04:23:55;13.27;;;5.57;;
74967;SDS011;63523;51.880;12.630;2023-02-21T04:26:21;15.82;;;6.35;;
74967;SDS011;63523;51.880;12.630;2023-02-21T04:28:48;13.60;;;5.30;;
74967;SDS011;63523;51.880;12.630;2023-02-21T04:31:15;14.80;;;6.15;;
74967;SDS011;63523;51.880;12.630;2023-02-21T04:33:41;15.05;;;6.10;;
74967;SDS011;63523;51.880;12.630;2023-02-21T04:36:07;14.15;;;5.68;;
74967;SDS011;63523;51.880;12.630;2023-02-21T04:38:33;17.10;;;6.70;;
74967;SDS011;63523;51.880;12.630;2023-02-21T04:40:58;23.70;;;8.27;;
74967;SDS011;63523;51.880;12.630;2023-02-21T04:43:23;33.70;;;11.10;;
74967;SDS011;63523;51.880;12.630;2023-02-21T04:45:49;35.40;;;12.17;;
74967;SDS011;63523;51.880;12.630;2023-02-21T04:48:14;37.53;;;11.40;;
74967;SDS011;63523;51.880;12.630;2023-02-21T04:50:40;18.65;;;6.93;;
74967;SDS011;63523;51.880;12.630;2023-02-21T04:53:06;25.43;;;8.93;;
74967;SDS011;63523;51.880;12.630;2023-02-21T04:55:31;28.70;;;10.30;;
74967;SDS011;63523;51.880;12.630;2023-02-21T04:57:57;31.92;;;9.98;;
74967;SDS011;63523;51.880;12.630;2023-02-21T05:00:22;25.97;;;8.57;;
74967;SDS011;63523;51.880;12.630;2023-02-21T05:02:48;21.50;;;7.67;;
74967;SDS011;63523;51.880;12.630;2023-02-21T05:05:13;18.58;;;7.05;;
74967;SDS011;63523;51.880;12.630;2023-02-21T05:07:42;24.17;;;8.77;;
74967;SDS011;63523;51.880;12.630;2023-02-21T05:10:08;21.98;;;7.45;;
74967;SDS011;63523;51.880;12.630;2023-02-21T05:12:35;20.50;;;7.63;;
74967;SDS011;63523;51.880;12.630;2023-02-21T05:15:03;16.00;;;6.43;;
74967;SDS011;63523;51.880;12.630;2023-02-21T05:17:30;15.70;;;6.40;;
74967;SDS011;63523;51.880;12.630;2023-02-21T05:19:55;16.98;;;6.55;;
74967;SDS011;63523;51.880;12.630;2023-02-21T05:22:21;17.23;;;7.03;;
74967;SDS011;63523;51.880;12.630;2023-02-21T05:24:46;22.43;;;7.93;;
74967;SDS011;63523;51.880;12.630;2023-02-21T05:27:13;14.95;;;6.03;;
74967;SDS011;63523;51.880;12.630;2023-02-21T05:29:41;17.20;;;6.65;;
74967;SDS011;63523;51.880;12.630;2023-02-21T05:32:10;16.80;;;6.43;;
74967;SDS011;63523;51.880;12.630;2023-02-21T05:34:36;16.07;;;6.53;;
74967;SDS011;63523;51.880;12.630;2023-02-21T05:37:01;13.53;;;5.93;;
74967;SDS011;63523;51.880;12.630;2023-02-21T05:39:27;17.08;;;6.45;;
74967;SDS011;63523;51.880;12.630;2023-02-21T05:41:52;15.77;;;6.37;;
74967;SDS011;63523;51.880;12.630;2023-02-21T05:44:17;16.40;;;6.23;;
74967;SDS011;63523;51.880;12.630;2023-02-21T05:46:43;15.33;;;6.20;;
74967;SDS011;63523;51.880;12.630;2023-02-21T05:49:10;17.40;;;6.77;;
74967;SDS011;63523;51.880;12.630;2023-02-21T05:51:36;17.02;;;6.95;;
74967;SDS011;63523;51.880;12.630;2023-02-21T05:54:06;16.73;;;6.85;;
74967;SDS011;63523;51.880;12.630;2023-02-21T05:56:39;15.50;;;6.88;;
74967;SDS011;63523;51.880;12.630;2023-02-21T05:59:05;15.75;;;6.45;;
74967;SDS011;63523;51.880;12.630;2023-02-21T06:01:31;17.30;;;6.77;;
74967;SDS011;63523;51.880;12.630;2023-02-21T06:03:56;16.00;;;6.40;;
74967;SDS011;63523;51.880;12.630;2023-02-21T06:06:22;15.27;;;6.53;;
74967;SDS011;63523;51.880;12.630;2023-02-21T06:08:48;16.57;;;6.33;;
74967;SDS011;63523;51.880;12.630;2023-02-21T06:11:14;14.25;;;5.90;;
74967;SDS011;63523;51.880;12.630;2023-02-21T06:13:48;13.38;;;5.63;;
74967;SDS011;63523;51.880;12.630;2023-02-21T06:16:15;15.93;;;6.00;;
74967;SDS011;63523;51.880;12.630;2023-02-21T06:18:40;14.65;;;6.13;;
74967;SDS011;63523;51.880;12.630;2023-02-21T06:21:05;16.47;;;6.00;;
74967;SDS011;63523;51.880;12.630;2023-02-21T06:23:31;13.50;;;5.97;;
74967;SDS011;63523;51.880;12.630;2023-02-21T06:25:56;15.02;;;6.30;;
74967;SDS011;63523;51.880;12.630;2023-02-21T06:28:26;17.53;;;6.23;;
74967;SDS011;63523;51.880;12.630;2023-02-21T06:30:53;15.50;;;6.28;;
74967;SDS011;63523;51.880;12.630;2023-02-21T06:33:19;16.77;;;6.40;;
74967;SDS011;63523;51.880;12.630;2023-02-21T06:35:45;15.02;;;6.32;;
74967;SDS011;63523;51.880;12.630;2023-02-21T06:38:10;16.57;;;6.53;;
74967;SDS011;63523;51.880;12.630;2023-02-21T06:40:35;14.00;;;6.57;;
74967;SDS011;63523;51.880;12.630;2023-02-21T06:43:01;15.30;;;6.23;;
74967;SDS011;63523;51.880;12.630;2023-02-21T06:45:26;15.80;;;6.50;;
74967;SDS011;63523;51.880;12.630;2023-02-21T06:47:52;16.10;;;6.70;;
74967;SDS011;63523;51.880;12.630;2023-02-21T06:50:21;16.60;;;6.70;;
74967;SDS011;63523;51.880;12.630;2023-02-21T06:52:46;15.35;;;7.05;;
74967;SDS011;63523;51.880;12.630;2023-02-21T06:55:23;17.80;;;7.22;;
74967;SDS011;63523;51.880;12.630;2023-02-21T06:57:49;16.03;;;6.73;;
74967;SDS011;63523;51.880;12.630;2023-02-21T07:00:15;16.17;;;6.90;;
74967;SDS011;63523;51.880;12.630;2023-02-21T07:02:41;18.10;;;7.10;;
74967;SDS011;63523;51.880;12.630;2023-02-21T07:05:07;17.70;;;7.22;;
74967;SDS011;63523;51.880;12.630;2023-02-21T07:07:33;21.75;;;8.82;;
74967;SDS011;63523;51.880;12.630;2023-02-21T07:09:58;20.60;;;8.83;;
74967;SDS011;63523;51.880;12.630;2023-02-21T07:12:24;19.43;;;8.33;;
74967;SDS011;63523;51.880;12.630;2023-02-21T07:14:52;19.17;;;8.32;;
74967;SDS011;63523;51.880;12.630;2023-02-21T07:17:18;22.42;;;8.70;;
74967;SDS011;63523;51.880;12.630;2023-02-21T07:19:43;21.93;;;7.93;;
74967;SDS011;63523;51.880;12.630;2023-02-21T07:22:09;17.73;;;7.60;;
74967;SDS011;63523;51.880;12.630;2023-02-21T07:24:35;17.83;;;7.60;;
74967;SDS011;63523;51.880;12.630;2023-02-21T07:27:00;19.95;;;8.02;;
74967;SDS011;63523;51.880;12.630;2023-02-21T07:29:26;18.87;;;7.80;;
74967;SDS011;63523;51.880;12.630;2023-02-21T07:31:52;18.02;;;7.60;;
74967;SDS011;63523;51.880;12.630;2023-02-21T07:34:17;18.13;;;7.63;;
74967;SDS011;63523;51.880;12.630;2023-02-21T07:36:44;20.52;;;8.10;;
74967;SDS011;63523;51.880;12.630;2023-02-21T07:39:10;21.42;;;8.25;;
74967;SDS011;63523;51.880;12.630;2023-02-21T07:41:36;20.00;;;8.87;;
74967;SDS011;63523;51.880;12.630;2023-02-21T07:44:02;22.33;;;8.70;;
74967;SDS011;63523;51.880;12.630;2023-02-21T07:46:27;29.27;;;11.27;;
74967;SDS011;63523;51.880;12.630;2023-02-21T07:48:53;25.27;;;10.48;;
74967;SDS011;63523;51.880;12.630;2023-02-21T07:51:19;23.98;;;9.60;;
74967;SDS011;63523;51.880;12.630;2023-02-21T07:53:45;24.13;;;9.47;;
74967;SDS011;63523;51.880;12.630;2023-02-21T07:56:10;21.63;;;9.50;;
74967;SDS011;63523;51.880;12.630;2023-02-21T07:58:36;20.35;;;8.98;;
74967;SDS011;63523;51.880;12.630;2023-02-21T08:01:05;21.10;;;8.80;;
74967;SDS011;63523;51.880;12.630;2023-02-21T08:03:31;24.65;;;9.77;;
74967;SDS011;63523;51.880;12.630;2023-02-21T08:05:57;34.03;;;11.97;;
74967;SDS011;63523;51.880;12.630;2023-02-21T08:08:24;21.85;;;9.15;;
74967;SDS011;63523;51.880;12.630;2023-02-21T08:10:50;25.65;;;10.27;;
74967;SDS011;63523;51.880;12.630;2023-02-21T08:13:15;46.93;;;15.27;;
74967;SDS011;63523;51.880;12.630;2023-02-21T08:15:41;39.50;;;13.70;;
74967;SDS011;63523;51.880;12.630;2023-02-21T08:18:13;26.17;;;9.97;;
74967;SDS011;63523;51.880;12.630;2023-02-21T08:20:44;30.27;;;11.23;;
74967;SDS011;63523;51.880;12.630;2023-02-21T08:23:10;36.15;;;12.25;;
74967;SDS011;63523;51.880;12.630;2023-02-21T08:25:36;26.13;;;9.82;;
74967;SDS011;63523;51.880;12.630;2023-02-21T08:28:02;23.70;;;9.13;;
74967;SDS011;63523;51.880;12.630;2023-02-21T08:30:27;23.73;;;9.80;;
74967;SDS011;63523;51.880;12.630;2023-02-21T08:32:53;21.47;;;8.73;;
74967;SDS011;63523;51.880;12.630;2023-02-21T08:35:19;21.17;;;8.88;;
74967;SDS011;63523;51.880;12.630;2023-02-21T08:37:46;20.73;;;9.07;;
74967;SDS011;63523;51.880;12.630;2023-02-21T08:40:13;20.48;;;8.48;;
74967;SDS011;63523;51.880;12.630;2023-02-21T08:42:39;21.17;;;8.87;;
74967;SDS011;63523;51.880;12.630;2023-02-21T08:45:06;23.40;;;9.35;;
74967;SDS011;63523;51.880;12.630;2023-02-21T08:47:34;18.42;;;8.23;;
74967;SDS011;63523;51.880;12.630;2023-02-21T08:50:00;21.08;;;8.77;;
74967;SDS011;63523;51.880;12.630;2023-02-21T08:52:26;21.77;;;9.00;;
74967;SDS011;63523;51.880;12.630;2023-02-21T08:54:51;22.80;;;8.73;;
74967;SDS011;63523;51.880;12.630;2023-02-21T08:57:17;20.05;;;8.13;;
74967;SDS011;63523;51.880;12.630;2023-02-21T08:59:43;20.73;;;8.50;;
74967;SDS011;63523;51.880;12.630;2023-02-21T09:04:41;25.60;;;9.50;;
74967;SDS011;63523;51.880;12.630;2023-02-21T09:07:07;19.23;;;8.40;;
74967;SDS011;63523;51.880;12.630;2023-02-21T09:09:36;26.20;;;10.25;;
74967;SDS011;63523;51.880;12.630;2023-02-21T09:12:01;26.58;;;9.63;;
74967;SDS011;63523;51.880;12.630;2023-02-21T09:14:27;21.97;;;8.60;;
74967;SDS011;63523;51.880;12.630;2023-02-21T09:16:52;19.30;;;8.17;;
74967;SDS011;63523;51.880;12.630;2023-02-21T09:19:18;22.20;;;8.67;;
74967;SDS011;63523;51.880;12.630;2023-02-21T09:21:45;18.17;;;8.10;;
74967;SDS011;63523;51.880;12.630;2023-02-21T09:24:12;21.23;;;8.18;;
74967;SDS011;63523;51.880;12.630;2023-02-21T09:26:38;18.50;;;8.02;;
74967;SDS011;63523;51.880;12.630;2023-02-21T09:29:03;17.07;;;7.53;;
74967;SDS011;63523;51.880;12.630;2023-02-21T09:31:29;18.40;;;7.87;;
74967;SDS011;63523;51.880;12.630;2023-02-21T09:33:54;16.70;;;7.13;;
74967;SDS011;63523;51.880;12.630;2023-02-21T09:36:20;17.57;;;7.33;;
74967;SDS011;63523;51.880;12.630;2023-02-21T09:38:49;18.65;;;7.18;;
74967;SDS011;63523;51.880;12.630;2023-02-21T09:41:15;15.43;;;6.57;;
74967;SDS011;63523;51.880;12.630;2023-02-21T09:43:43;16.10;;;6.85;;
74967;SDS011;63523;51.880;12.630;2023-02-21T09:47:12;16.57;;;6.70;;
74967;SDS011;63523;51.880;12.630;2023-02-21T09:49:39;15.90;;;6.68;;
74967;SDS011;63523;51.880;12.630;2023-02-21T09:52:11;14.63;;;6.25;;
74967;SDS011;63523;51.880;12.630;2023-02-21T09:55:04;16.73;;;5.90;;
74967;SDS011;63523;51.880;12.630;2023-02-21T09:57:49;15.65;;;6.30;;
74967;SDS011;63523;51.880;12.630;2023-02-21T10:00:16;18.50;;;7.07;;
74967;SDS011;63523;51.880;12.630;2023-02-21T10:11:32;15.00;;;5.75;;
74967;SDS011;63523;51.880;12.630;2023-02-21T10:14:26;16.20;;;6.50;;
74967;SDS011;63523;51.880;12.630;2023-02-21T10:17:02;16.95;;;6.43;;
74967;SDS011;63523;51.880;12.630;2023-02-21T10:19:37;19.00;;;6.93;;
74967;SDS011;63523;51.880;12.630;2023-02-21T10:22:16;17.05;;;6.53;;
74967;SDS011;63523;51.880;12.630;2023-02-21T10:24:45;17.60;;;6.82;;
74967;SDS011;63523;51.880;12.630;2023-02-21T10:27:15;15.40;;;5.88;;
74967;SDS011;63523;51.880;12.630;2023-02-21T10:32:23;16.40;;;6.30;;
74967;SDS011;63523;51.880;12.630;2023-02-21T10:34:50;16.20;;;6.15;;
74967;SDS011;63523;51.880;12.630;2023-02-21T10:40:39;15.82;;;6.38;;
74967;SDS011;63523;51.880;12.630;2023-02-21T10:48:47;20.23;;;7.75;;
74967;SDS011;63523;51.880;12.630;2023-02-21T10:51:17;19.15;;;7.70;;
74967;SDS011;63523;51.880;12.630;2023-02-21T10:56:53;20.77;;;7.85;;
74967;SDS011;63523;51.880;12.630;2023-02-21T10:59:26;22.07;;;8.67;;
74967;SDS011;63523;51.880;12.630;2023-02-21T11:01:54;21.58;;;8.20;;
74967;SDS011;63523;51.880;12.630;2023-02-21T11:09:42;23.95;;;8.88;;
74967;SDS011;63523;51.880;12.630;2023-02-21T11:17:24;22.05;;;8.52;;
74967;SDS011;63523;51.880;12.630;2023-02-21T11:28:05;21.25;;;8.60;;
74967;SDS011;63523;51.880;12.630;2023-02-21T11:33:23;24.08;;;9.73;;
74967;SDS011;63523;51.880;12.630;2023-02-21T11:35:53;26.02;;;10.15;;
74967;SDS011;63523;51.880;12.630;2023-02-21T11:38:34;23.67;;;9.10;;
74967;SDS011;63523;51.880;12.630;2023-02-21T11:41:03;21.92;;;9.25;;
74967;SDS011;63523;51.880;12.630;2023-02-21T11:43:52;21.17;;;8.30;;
74967;SDS011;63523;51.880;12.630;2023-02-21T11:51:52;25.02;;;10.00;;
74967;SDS011;63523;51.880;12.630;2023-02-21T11:54:24;24.98;;;9.98;;
74967;SDS011;63523;51.880;12.630;2023-02-21T11:57:05;23.03;;;9.57;;
74967;SDS011;63523;51.880;12.630;2023-02-21T11:59:47;23.42;;;9.80;;
74967;SDS011;63523;51.880;12.630;2023-02-21T12:34:19;27.27;;;10.90;;
74967;SDS011;63523;51.880;12.630;2023-02-21T12:39:12;21.80;;;10.30;;
74967;SDS011;63523;51.880;12.630;2023-02-21T12:50:01;26.33;;;11.65;;
74967;SDS011;63523;51.880;12.630;2023-02-21T12:52:38;25.45;;;12.93;;
74967;SDS011;63523;51.880;12.630;2023-02-21T12:55:26;23.98;;;11.20;;
74967;SDS011;63523;51.880;12.630;2023-02-21T13:08:35;23.98;;;11.60;;
74967;SDS011;63523;51.880;12.630;2023-02-21T13:11:24;22.75;;;10.38;;
74967;SDS011;63523;51.880;12.630;2023-02-21T13:14:18;24.23;;;10.15;;
74967;SDS011;63523;51.880;12.630;2023-02-21T13:16:50;21.00;;;9.70;;
74967;SDS011;63523;51.880;12.630;2023-02-21T13:19:17;20.37;;;9.67;;
74967;SDS011;63523;51.880;12.630;2023-02-21T13:21:54;20.25;;;9.25;;
74967;SDS011;63523;51.880;12.630;2023-02-21T13:25:15;20.30;;;9.38;;
74967;SDS011;63523;51.880;12.630;2023-02-21T13:33:00;18.00;;;8.43;;
74967;SDS011;63523;51.880;12.630;2023-02-21T13:35:36;18.35;;;8.20;;
74967;SDS011;63523;51.880;12.630;2023-02-21T13:38:07;16.05;;;7.63;;
74967;SDS011;63523;51.880;12.630;2023-02-21T13:43:15;16.20;;;7.60;;
74967;SDS011;63523;51.880;12.630;2023-02-21T13:45:49;16.60;;;6.87;;
74967;SDS011;63523;51.880;12.630;2023-02-21T13:48:26;16.45;;;7.22;;
74967;SDS011;63523;51.880;12.630;2023-02-21T13:50:57;16.50;;;6.63;;
74967;SDS011;63523;51.880;12.630;2023-02-21T13:53:25;15.43;;;6.32;;
74967;SDS011;63523;51.880;12.630;2023-02-21T13:58:27;13.97;;;6.00;;
74967;SDS011;63523;51.880;12.630;2023-02-21T14:00:56;15.35;;;6.18;;
74967;SDS011;63523;51.880;12.630;2023-02-21T14:07:06;12.85;;;6.20;;
74967;SDS011;63523;51.880;12.630;2023-02-21T14:09:33;13.67;;;6.27;;
74967;SDS011;63523;51.880;12.630;2023-02-21T14:12:02;15.63;;;6.45;;
74967;SDS011;63523;51.880;12.630;2023-02-21T14:14:30;14.45;;;6.53;;
74967;SDS011;63523;51.880;12.630;2023-02-21T14:17:01;16.23;;;6.40;;
74967;SDS011;63523;51.880;12.630;2023-02-21T14:19:36;14.38;;;6.25;;
74967;SDS011;63523;51.880;12.630;2023-02-21T14:22:14;14.77;;;6.27;;
74967;SDS011;63523;51.880;12.630;2023-02-21T14:24:45;14.32;;;6.50;;
74967;SDS011;63523;51.880;12.630;2023-02-21T14:29:43;15.85;;;6.70;;
74967;SDS011;63523;51.880;12.630;2023-02-21T14:32:45;15.38;;;6.72;;
74967;SDS011;63523;51.880;12.630;2023-02-21T14:38:05;15.13;;;6.85;;
74967;SDS011;63523;51.880;12.630;2023-02-21T14:43:52;15.27;;;6.25;;
74967;SDS011;63523;51.880;12.630;2023-02-21T14:58:31;13.95;;;6.35;;
74967;SDS011;63523;51.880;12.630;2023-02-21T15:06:38;11.45;;;5.50;;
74967;SDS011;63523;51.880;12.630;2023-02-21T15:09:16;13.50;;;6.00;;
74967;SDS011;63523;51.880;12.630;2023-02-21T15:11:43;13.40;;;5.80;;
74967;SDS011;63523;51.880;12.630;2023-02-21T15:14:22;11.93;;;5.70;;
74967;SDS011;63523;51.880;12.630;2023-02-21T15:16:59;12.63;;;5.70;;
74967;SDS011;63523;51.880;12.630;2023-02-21T15:19:30;13.13;;;6.10;;
74967;SDS011;63523;51.880;12.630;2023-02-21T15:25:12;13.80;;;5.38;;
74967;SDS011;63523;51.880;12.630;2023-02-21T15:32:41;12.30;;;5.60;;
74967;SDS011;63523;51.880;12.630;2023-02-21T15:35:10;10.73;;;5.32;;
74967;SDS011;63523;51.880;12.630;2023-02-21T15:37:42;11.52;;;4.93;;
74967;SDS011;63523;51.880;12.630;2023-02-21T15:40:20;11.38;;;5.38;;
74967;SDS011;63523;51.880;12.630;2023-02-21T15:42:48;11.57;;;5.43;;
74967;SDS011;63523;51.880;12.630;2023-02-21T15:45:17;12.32;;;5.60;;
74967;SDS011;63523;51.880;12.630;2023-02-21T15:47:46;11.00;;;5.13;;
74967;SDS011;63523;51.880;12.630;2023-02-21T15:50:13;13.68;;;5.45;;
74967;SDS011;63523;51.880;12.630;2023-02-21T15:52:46;12.50;;;4.78;;
74967;SDS011;63523;51.880;12.630;2023-02-21T15:58:29;13.60;;;5.75;;
74967;SDS011;63523;51.880;12.630;2023-02-21T16:05:50;12.05;;;6.18;;
74967;SDS011;63523;51.880;12.630;2023-02-21T16:08:15;13.40;;;5.23;;
74967;SDS011;63523;51.880;12.630;2023-02-21T16:10:41;10.77;;;4.95;;
74967;SDS011;63523;51.880;12.630;2023-02-21T16:13:08;12.37;;;5.10;;
74967;SDS011;63523;51.880;12.630;2023-02-21T16:15:34;13.88;;;5.50;;
74967;SDS011;63523;51.880;12.630;2023-02-21T16:18:02;13.50;;;5.00;;
74967;SDS011;63523;51.880;12.630;2023-02-21T16:20:36;11.73;;;5.18;;
74967;SDS011;63523;51.880;12.630;2023-02-21T16:26:02;11.67;;;5.07;;
74967;SDS011;63523;51.880;12.630;2023-02-21T16:28:49;12.27;;;4.68;;
74967;SDS011;63523;51.880;12.630;2023-02-21T16:31:15;11.77;;;5.00;;
74967;SDS011;63523;51.880;12.630;2023-02-21T16:33:49;12.48;;;5.47;;
74967;SDS011;63523;51.880;12.630;2023-02-21T16:36:17;12.30;;;5.32;;
74967;SDS011;63523;51.880;12.630;2023-02-21T16:38:47;14.95;;;5.93;;
74967;SDS011;63523;51.880;12.630;2023-02-21T16:41:13;14.50;;;5.90;;
74967;SDS011;63523;51.880;12.630;2023-02-21T16:43:39;11.10;;;5.30;;
74967;SDS011;63523;51.880;12.630;2023-02-21T16:46:05;12.67;;;5.50;;
74967;SDS011;63523;51.880;12.630;2023-02-21T16:48:31;11.93;;;5.10;;
74967;SDS011;63523;51.880;12.630;2023-02-21T16:50:58;13.00;;;5.20;;
74967;SDS011;63523;51.880;12.630;2023-02-21T16:53:31;13.90;;;4.93;;
74967;SDS011;63523;51.880;12.630;2023-02-21T16:55:58;12.87;;;5.30;;
74967;SDS011;63523;51.880;12.630;2023-02-21T16:58:27;10.27;;;4.78;;
74967;SDS011;63523;51.880;12.630;2023-02-21T17:00:56;12.38;;;4.38;;
74967;SDS011;63523;51.880;12.630;2023-02-21T17:03:25;14.52;;;5.90;;
74967;SDS011;63523;51.880;12.630;2023-02-21T17:05:56;11.07;;;4.82;;
74967;SDS011;63523;51.880;12.630;2023-02-21T17:08:23;10.20;;;4.53;;
74967;SDS011;63523;51.880;12.630;2023-02-21T17:10:51;11.15;;;5.07;;
74967;SDS011;63523;51.880;12.630;2023-02-21T17:13:16;10.85;;;4.93;;
74967;SDS011;63523;51.880;12.630;2023-02-21T17:15:42;13.00;;;5.00;;
74967;SDS011;63523;51.880;12.630;2023-02-21T17:18:07;13.13;;;5.03;;
74967;SDS011;63523;51.880;12.630;2023-02-21T17:20:33;10.95;;;4.80;;
74967;SDS011;63523;51.880;12.630;2023-02-21T17:22:58;10.87;;;5.03;;
74967;SDS011;63523;51.880;12.630;2023-02-21T17:25:26;10.88;;;4.60;;
74967;SDS011;63523;51.880;12.630;2023-02-21T17:27:51;11.07;;;4.82;;
74967;SDS011;63523;51.880;12.630;2023-02-21T17:30:18;15.37;;;4.50;;
74967;SDS011;63523;51.880;12.630;2023-02-21T17:32:45;10.43;;;4.63;;
74967;SDS011;63523;51.880;12.630;2023-02-21T17:35:12;12.20;;;4.80;;
74967;SDS011;63523;51.880;12.630;2023-02-21T17:37:39;12.48;;;4.93;;
74967;SDS011;63523;51.880;12.630;2023-02-21T17:40:06;14.05;;;6.20;;
74967;SDS011;63523;51.880;12.630;2023-02-21T17:42:32;14.45;;;5.55;;
74967;SDS011;63523;51.880;12.630;2023-02-21T17:45:01;14.17;;;5.40;;
74967;SDS011;63523;51.880;12.630;2023-02-21T17:47:27;11.23;;;5.80;;
74967;SDS011;63523;51.880;12.630;2023-02-21T17:49:53;15.85;;;7.18;;
74967;SDS011;63523;51.880;12.630;2023-02-21T17:52:20;15.20;;;7.00;;
74967;SDS011;63523;51.880;12.630;2023-02-21T17:54:46;14.43;;;6.05;;
74967;SDS011;63523;51.880;12.630;2023-02-21T17:57:11;13.13;;;5.47;;
74967;SDS011;63523;51.880;12.630;2023-02-21T17:59:37;12.10;;;5.20;;
74967;SDS011;63523;51.880;12.630;2023-02-21T18:02:03;12.20;;;5.25;;
74967;SDS011;63523;51.880;12.630;2023-02-21T18:04:32;13.00;;;5.37;;
74967;SDS011;63523;51.880;12.630;2023-02-21T18:06:58;13.07;;;5.10;;